MBU2QV EDDP-LEPA
Flight info
| Callsign | MBU2QV |
|---|---|
| Flight time | 2h 17m |
| Altitude | 38000 |
| Route | NEVKO2N NEVKO Q243 BAMKI Z94 KOMIB DCT TEDGO N869 NATOR DCT LUTIX DCT BENOT DCT NEMOS DCT GEVEA DCT INCUS DCT BALSI DCT RETNO DCT TUPOX DCT MTG DCT DIVKO DCT VATIR N852 VERSO L129 LUNIK LUNIK3M |
| Aircraft | A20N/M-V/N |
Departure
| Time | 2026-05-06 13:40 |
|---|---|
| Airport | Leipzig/Halle Airport (EDDP) |
Arrival
| Time | 2026-05-06 15:57 |
|---|---|
| Airport | Palma de Mallorca Airport (LEPA) |
| Time | Latitude | Longitude | Altitude | Speed | Heading |
|---|---|---|---|---|---|
| 2026-05-06 13:05 | 51.41906 | 12.22033 | 443 ft | 0 kts | 16° |
| 2026-05-06 13:24 | 51.41897 | 12.22029 | 442 ft | 4 kts | 16° |
| 2026-05-06 13:25 | 51.41872 | 12.22017 | 430 ft | 4 kts | 18° |
| 2026-05-06 13:25 | 51.41846 | 12.22003 | 440 ft | 4 kts | 23° |
| 2026-05-06 13:25 | 51.41823 | 12.21983 | 429 ft | 4 kts | 51° |
| 2026-05-06 13:25 | 51.41817 | 12.21961 | 439 ft | 0 kts | 105° |
| 2026-05-06 13:28 | 51.41816 | 12.21967 | 437 ft | 1 kts | 105° |
| 2026-05-06 13:29 | 51.41811 | 12.21997 | 434 ft | 6 kts | 105° |
| 2026-05-06 13:29 | 51.41792 | 12.22107 | 448 ft | 13 kts | 106° |
| 2026-05-06 13:29 | 51.41766 | 12.22257 | 451 ft | 14 kts | 107° |
| 2026-05-06 13:29 | 51.41747 | 12.22355 | 452 ft | 13 kts | 108° |
| 2026-05-06 13:30 | 51.41726 | 12.22477 | 457 ft | 9 kts | 92° |
| 2026-05-06 13:30 | 51.41717 | 12.22573 | 459 ft | 9 kts | 99° |
| 2026-05-06 13:30 | 51.41707 | 12.22658 | 459 ft | 7 kts | 101° |
| 2026-05-06 13:30 | 51.41687 | 12.22734 | 461 ft | 10 kts | 113° |
| 2026-05-06 13:31 | 51.41656 | 12.22913 | 463 ft | 16 kts | 107° |
| 2026-05-06 13:31 | 51.41633 | 12.23039 | 461 ft | 19 kts | 106° |
| 2026-05-06 13:31 | 51.41601 | 12.23257 | 464 ft | 21 kts | 96° |
| 2026-05-06 13:31 | 51.41606 | 12.23485 | 463 ft | 21 kts | 84° |
| 2026-05-06 13:32 | 51.41618 | 12.23712 | 468 ft | 20 kts | 86° |
| 2026-05-06 13:32 | 51.41630 | 12.23936 | 469 ft | 21 kts | 84° |
| 2026-05-06 13:32 | 51.41641 | 12.24159 | 474 ft | 19 kts | 86° |
| 2026-05-06 13:32 | 51.41648 | 12.24380 | 474 ft | 21 kts | 86° |
| 2026-05-06 13:33 | 51.41661 | 12.24621 | 474 ft | 22 kts | 85° |
| 2026-05-06 13:33 | 51.41692 | 12.24767 | 473 ft | 14 kts | 34° |
| 2026-05-06 13:33 | 51.41776 | 12.24809 | 476 ft | 12 kts | 15° |
| 2026-05-06 13:33 | 51.41870 | 12.24850 | 485 ft | 17 kts | 15° |
| 2026-05-06 13:34 | 51.41990 | 12.24901 | 491 ft | 18 kts | 14° |
| 2026-05-06 13:34 | 51.42117 | 12.24949 | 489 ft | 20 kts | 13° |
| 2026-05-06 13:34 | 51.42266 | 12.25006 | 476 ft | 24 kts | 13° |
| 2026-05-06 13:34 | 51.42442 | 12.25073 | 474 ft | 26 kts | 13° |
| 2026-05-06 13:35 | 51.42627 | 12.25144 | 464 ft | 29 kts | 13° |
| 2026-05-06 13:35 | 51.42811 | 12.25217 | 454 ft | 25 kts | 14° |
| 2026-05-06 13:35 | 51.42931 | 12.25262 | 450 ft | 17 kts | 13° |
| 2026-05-06 13:35 | 51.42995 | 12.25382 | 453 ft | 15 kts | 82° |
| 2026-05-06 13:36 | 51.43004 | 12.25555 | 453 ft | 17 kts | 85° |
| 2026-05-06 13:36 | 51.43011 | 12.25757 | 452 ft | 19 kts | 87° |
| 2026-05-06 13:36 | 51.43020 | 12.25968 | 454 ft | 20 kts | 86° |
| 2026-05-06 13:36 | 51.43030 | 12.26203 | 452 ft | 22 kts | 86° |
| 2026-05-06 13:37 | 51.43041 | 12.26446 | 454 ft | 21 kts | 85° |
| 2026-05-06 13:37 | 51.43050 | 12.26637 | 454 ft | 13 kts | 86° |
| 2026-05-06 13:37 | 51.43098 | 12.26739 | 456 ft | 12 kts | 17° |
| 2026-05-06 13:37 | 51.43175 | 12.26733 | 457 ft | 11 kts | 353° |
| 2026-05-06 13:38 | 51.43262 | 12.26726 | 456 ft | 14 kts | 354° |
| 2026-05-06 13:38 | 51.43350 | 12.26682 | 452 ft | 13 kts | 314° |
| 2026-05-06 13:38 | 51.43357 | 12.26599 | 453 ft | 1 kts | 266° |
| 2026-05-06 13:38 | 51.43356 | 12.26573 | 453 ft | 4 kts | 266° |
| 2026-05-06 13:39 | 51.43345 | 12.26313 | 450 ft | 56 kts | 266° |
| 2026-05-06 13:39 | 51.43301 | 12.25355 | 458 ft | 113 kts | 266° |
| 2026-05-06 13:39 | 51.43227 | 12.23835 | 450 ft | 158 kts | 265° |
| 2026-05-06 13:39 | 51.43154 | 12.22097 | 960 ft | 150 kts | 266° |
| 2026-05-06 13:40 | 51.43069 | 12.19916 | 1765 ft | 146 kts | 267° |
| 2026-05-06 13:40 | 51.43036 | 12.18843 | 2100 ft | 146 kts | 266° |
| 2026-05-06 13:40 | 51.42980 | 12.17176 | 2478 ft | 155 kts | 266° |
| 2026-05-06 13:40 | 51.42899 | 12.15360 | 2770 ft | 172 kts | 264° |
| 2026-05-06 13:41 | 51.42795 | 12.13390 | 3213 ft | 182 kts | 264° |
| 2026-05-06 13:41 | 51.42686 | 12.11333 | 3797 ft | 188 kts | 264° |
| 2026-05-06 13:41 | 51.42575 | 12.09202 | 4451 ft | 196 kts | 264° |
| 2026-05-06 13:41 | 51.42463 | 12.06966 | 5089 ft | 208 kts | 264° |
| 2026-05-06 13:42 | 51.42342 | 12.04573 | 5710 ft | 223 kts | 263° |
| 2026-05-06 13:42 | 51.42211 | 12.02003 | 6360 ft | 239 kts | 263° |
| 2026-05-06 13:42 | 51.42073 | 11.99263 | 6989 ft | 255 kts | 263° |
| 2026-05-06 13:42 | 51.41731 | 11.96464 | 7606 ft | 263 kts | 245° |
| 2026-05-06 13:43 | 51.40680 | 11.94086 | 8249 ft | 266 kts | 221° |
| 2026-05-06 13:43 | 51.39118 | 11.92482 | 8901 ft | 269 kts | 210° |
| 2026-05-06 13:43 | 51.37482 | 11.91005 | 9561 ft | 271 kts | 211° |
| 2026-05-06 13:43 | 51.35914 | 11.89298 | 10088 ft | 281 kts | 219° |
| 2026-05-06 13:44 | 51.34330 | 11.87252 | 10422 ft | 304 kts | 219° |
| 2026-05-06 13:44 | 51.32637 | 11.85044 | 10880 ft | 320 kts | 220° |
| 2026-05-06 13:44 | 51.30906 | 11.82763 | 11697 ft | 324 kts | 220° |
| 2026-05-06 13:44 | 51.29161 | 11.80452 | 12540 ft | 328 kts | 220° |
| 2026-05-06 13:45 | 51.27398 | 11.78113 | 13384 ft | 331 kts | 220° |
| 2026-05-06 13:45 | 51.23842 | 11.73398 | 14860 ft | 338 kts | 220° |
| 2026-05-06 13:45 | 51.22026 | 11.70995 | 15597 ft | 341 kts | 220° |
| 2026-05-06 13:46 | 51.20190 | 11.68571 | 16324 ft | 345 kts | 220° |
| 2026-05-06 13:46 | 51.18332 | 11.66118 | 17019 ft | 349 kts | 219° |
| 2026-05-06 13:46 | 51.16456 | 11.63645 | 17741 ft | 352 kts | 219° |
| 2026-05-06 13:46 | 51.14558 | 11.61148 | 18404 ft | 355 kts | 219° |
| 2026-05-06 13:47 | 51.12643 | 11.58631 | 19016 ft | 359 kts | 219° |
| 2026-05-06 13:47 | 51.10712 | 11.56095 | 19646 ft | 361 kts | 220° |
| 2026-05-06 13:47 | 51.08766 | 11.53541 | 20245 ft | 364 kts | 220° |
| 2026-05-06 13:47 | 51.06829 | 11.51001 | 20848 ft | 367 kts | 220° |
| 2026-05-06 13:48 | 51.04850 | 11.48410 | 21447 ft | 370 kts | 220° |
| 2026-05-06 13:48 | 51.02852 | 11.45797 | 22048 ft | 373 kts | 220° |
| 2026-05-06 13:48 | 51.00833 | 11.43160 | 22616 ft | 377 kts | 220° |
| 2026-05-06 13:48 | 50.98799 | 11.40507 | 23203 ft | 380 kts | 221° |
| 2026-05-06 13:49 | 50.96748 | 11.37835 | 23739 ft | 382 kts | 220° |
| 2026-05-06 13:49 | 50.94695 | 11.35161 | 24314 ft | 382 kts | 220° |
| 2026-05-06 13:49 | 50.92638 | 11.32485 | 24867 ft | 383 kts | 220° |
| 2026-05-06 13:49 | 50.90576 | 11.29808 | 25261 ft | 384 kts | 220° |
| 2026-05-06 13:50 | 50.88533 | 11.27158 | 25644 ft | 385 kts | 219° |
| 2026-05-06 13:50 | 50.86458 | 11.24470 | 26024 ft | 386 kts | 219° |
| 2026-05-06 13:50 | 50.84378 | 11.21777 | 26409 ft | 387 kts | 219° |
| 2026-05-06 13:50 | 50.82296 | 11.19084 | 26800 ft | 387 kts | 219° |
| 2026-05-06 13:51 | 50.80207 | 11.16386 | 27196 ft | 388 kts | 219° |
| 2026-05-06 13:51 | 50.78109 | 11.13679 | 27594 ft | 389 kts | 218° |
| 2026-05-06 13:51 | 50.76009 | 11.10974 | 28001 ft | 391 kts | 218° |
| 2026-05-06 13:51 | 50.73899 | 11.08258 | 28422 ft | 392 kts | 218° |
| 2026-05-06 13:52 | 50.71785 | 11.05542 | 28834 ft | 392 kts | 218° |
| 2026-05-06 13:52 | 50.69666 | 11.02822 | 29258 ft | 393 kts | 217° |
| 2026-05-06 13:52 | 50.67572 | 11.00137 | 29655 ft | 395 kts | 217° |
| 2026-05-06 13:52 | 50.65432 | 10.97398 | 29808 ft | 397 kts | 217° |
| 2026-05-06 13:53 | 50.63279 | 10.94646 | 30118 ft | 399 kts | 217° |
| 2026-05-06 13:53 | 50.61118 | 10.91888 | 30389 ft | 402 kts | 217° |
| 2026-05-06 13:53 | 50.58942 | 10.89114 | 30686 ft | 404 kts | 217° |
| 2026-05-06 13:53 | 50.56755 | 10.86329 | 30766 ft | 405 kts | 217° |
| 2026-05-06 13:54 | 50.52368 | 10.80751 | 30765 ft | 405 kts | 217° |
| 2026-05-06 13:54 | 50.47965 | 10.75169 | 31008 ft | 409 kts | 217° |
| 2026-05-06 13:55 | 50.45751 | 10.72366 | 31407 ft | 408 kts | 218° |
| 2026-05-06 13:55 | 50.43541 | 10.69572 | 31789 ft | 408 kts | 218° |
| 2026-05-06 13:55 | 50.41362 | 10.66822 | 32175 ft | 408 kts | 218° |
| 2026-05-06 13:55 | 50.39155 | 10.64038 | 32531 ft | 408 kts | 218° |
| 2026-05-06 13:56 | 50.36945 | 10.61256 | 32749 ft | 407 kts | 218° |
| 2026-05-06 13:56 | 50.34740 | 10.58481 | 32765 ft | 406 kts | 218° |
| 2026-05-06 13:56 | 50.30339 | 10.52952 | 32769 ft | 406 kts | 218° |
| 2026-05-06 13:57 | 50.25921 | 10.47418 | 33062 ft | 408 kts | 218° |
| 2026-05-06 13:57 | 50.23702 | 10.44644 | 33428 ft | 407 kts | 218° |
| 2026-05-06 13:57 | 50.21521 | 10.41921 | 33788 ft | 407 kts | 218° |
| 2026-05-06 13:58 | 50.19311 | 10.39165 | 34062 ft | 407 kts | 218° |
| 2026-05-06 13:58 | 50.17097 | 10.36404 | 34280 ft | 408 kts | 218° |
| 2026-05-06 13:58 | 50.14874 | 10.33638 | 34496 ft | 409 kts | 218° |
| 2026-05-06 13:58 | 50.12649 | 10.30872 | 34706 ft | 410 kts | 218° |
| 2026-05-06 13:59 | 50.10417 | 10.28100 | 34925 ft | 411 kts | 218° |
| 2026-05-06 13:59 | 50.08102 | 10.25480 | 35127 ft | 412 kts | 213° |
| 2026-05-06 13:59 | 50.05638 | 10.23182 | 35331 ft | 413 kts | 208° |
| 2026-05-06 13:59 | 50.03044 | 10.21231 | 35532 ft | 415 kts | 205° |
| 2026-05-06 14:00 | 50.00439 | 10.19454 | 35730 ft | 416 kts | 205° |
| 2026-05-06 14:00 | 49.97791 | 10.17628 | 35922 ft | 416 kts | 205° |
| 2026-05-06 14:00 | 49.95142 | 10.15792 | 36100 ft | 417 kts | 205° |
| 2026-05-06 14:00 | 49.92494 | 10.13953 | 36292 ft | 418 kts | 205° |
| 2026-05-06 14:01 | 49.89835 | 10.12108 | 36467 ft | 419 kts | 205° |
| 2026-05-06 14:01 | 49.87169 | 10.10261 | 36642 ft | 420 kts | 205° |
| 2026-05-06 14:01 | 49.84502 | 10.08415 | 36806 ft | 421 kts | 205° |
| 2026-05-06 14:01 | 49.81826 | 10.06566 | 36984 ft | 421 kts | 205° |
| 2026-05-06 14:02 | 49.79181 | 10.04741 | 37135 ft | 422 kts | 205° |
| 2026-05-06 14:02 | 49.76501 | 10.02894 | 37310 ft | 423 kts | 205° |
| 2026-05-06 14:02 | 49.73811 | 10.01043 | 37469 ft | 423 kts | 205° |
| 2026-05-06 14:02 | 49.71117 | 9.99191 | 37617 ft | 424 kts | 205° |
| 2026-05-06 14:03 | 49.68424 | 9.97342 | 37783 ft | 424 kts | 205° |
| 2026-05-06 14:03 | 49.65725 | 9.95492 | 37785 ft | 424 kts | 205° |
| 2026-05-06 14:03 | 49.60354 | 9.91816 | 37796 ft | 422 kts | 205° |
| 2026-05-06 14:04 | 49.55033 | 9.88182 | 37798 ft | 420 kts | 205° |
| 2026-05-06 14:04 | 49.49698 | 9.84548 | 37794 ft | 419 kts | 205° |
| 2026-05-06 14:05 | 49.44372 | 9.80929 | 37808 ft | 418 kts | 205° |
| 2026-05-06 14:05 | 49.39060 | 9.77328 | 37813 ft | 417 kts | 205° |
| 2026-05-06 14:06 | 49.33745 | 9.73732 | 37790 ft | 417 kts | 205° |
| 2026-05-06 14:06 | 49.28502 | 9.70195 | 37779 ft | 414 kts | 205° |
| 2026-05-06 14:07 | 49.23220 | 9.66640 | 37780 ft | 414 kts | 205° |
| 2026-05-06 14:07 | 49.17951 | 9.63101 | 37777 ft | 413 kts | 205° |
| 2026-05-06 14:08 | 49.12689 | 9.59576 | 37774 ft | 413 kts | 204° |
| 2026-05-06 14:08 | 49.07456 | 9.56078 | 37774 ft | 413 kts | 204° |
| 2026-05-06 14:09 | 49.02194 | 9.52569 | 37779 ft | 413 kts | 204° |
| 2026-05-06 14:09 | 48.96925 | 9.49063 | 37780 ft | 413 kts | 204° |
| 2026-05-06 14:10 | 48.91656 | 9.45566 | 37791 ft | 413 kts | 204° |
| 2026-05-06 14:10 | 48.86387 | 9.42076 | 37798 ft | 413 kts | 204° |
| 2026-05-06 14:11 | 48.81143 | 9.38611 | 37793 ft | 414 kts | 204° |
| 2026-05-06 14:11 | 48.75857 | 9.35126 | 37804 ft | 414 kts | 204° |
| 2026-05-06 14:12 | 48.70560 | 9.31642 | 37802 ft | 415 kts | 204° |
| 2026-05-06 14:12 | 48.65279 | 9.28104 | 37803 ft | 415 kts | 207° |
| 2026-05-06 14:13 | 48.60374 | 9.23641 | 37795 ft | 415 kts | 216° |
| 2026-05-06 14:13 | 48.55945 | 9.18040 | 37793 ft | 416 kts | 221° |
| 2026-05-06 14:14 | 48.51646 | 9.12197 | 37790 ft | 416 kts | 221° |
| 2026-05-06 14:14 | 48.47325 | 9.06386 | 37790 ft | 417 kts | 221° |
| 2026-05-06 14:15 | 48.42987 | 9.00580 | 37798 ft | 417 kts | 221° |
| 2026-05-06 14:15 | 48.38675 | 8.94823 | 37801 ft | 417 kts | 221° |
| 2026-05-06 14:16 | 48.34329 | 8.89033 | 37807 ft | 418 kts | 221° |
| 2026-05-06 14:16 | 48.29970 | 8.83240 | 37815 ft | 418 kts | 221° |
| 2026-05-06 14:17 | 48.25600 | 8.77445 | 37815 ft | 422 kts | 221° |
| 2026-05-06 14:17 | 48.21184 | 8.71604 | 37816 ft | 430 kts | 221° |
| 2026-05-06 14:18 | 48.16695 | 8.65679 | 37827 ft | 430 kts | 221° |
| 2026-05-06 14:18 | 48.12206 | 8.59769 | 37826 ft | 430 kts | 221° |
| 2026-05-06 14:19 | 48.07712 | 8.53867 | 37835 ft | 430 kts | 221° |
| 2026-05-06 14:19 | 48.03238 | 8.48006 | 37840 ft | 430 kts | 221° |
| 2026-05-06 14:20 | 47.98734 | 8.42119 | 37833 ft | 431 kts | 221° |
| 2026-05-06 14:20 | 47.94221 | 8.36234 | 37840 ft | 431 kts | 221° |
| 2026-05-06 14:21 | 47.89701 | 8.30355 | 37846 ft | 431 kts | 221° |
| 2026-05-06 14:21 | 47.85202 | 8.24518 | 37843 ft | 432 kts | 221° |
| 2026-05-06 14:22 | 47.80671 | 8.18652 | 37858 ft | 432 kts | 221° |
| 2026-05-06 14:22 | 47.76140 | 8.12801 | 37861 ft | 432 kts | 221° |
| 2026-05-06 14:23 | 47.71599 | 8.06952 | 37862 ft | 431 kts | 221° |
| 2026-05-06 14:23 | 47.67070 | 8.01130 | 37875 ft | 431 kts | 221° |
| 2026-05-06 14:24 | 47.62559 | 7.95346 | 37876 ft | 431 kts | 221° |
| 2026-05-06 14:24 | 47.58026 | 7.89547 | 37877 ft | 430 kts | 220° |
| 2026-05-06 14:25 | 47.53500 | 7.83771 | 37882 ft | 429 kts | 220° |
| 2026-05-06 14:25 | 47.48977 | 7.78014 | 37883 ft | 428 kts | 220° |
| 2026-05-06 14:26 | 47.44495 | 7.72321 | 37878 ft | 427 kts | 220° |
| 2026-05-06 14:26 | 47.39985 | 7.66606 | 37882 ft | 427 kts | 220° |
| 2026-05-06 14:27 | 47.35481 | 7.60912 | 37880 ft | 426 kts | 220° |
| 2026-05-06 14:27 | 47.30983 | 7.55239 | 37873 ft | 425 kts | 220° |
| 2026-05-06 14:28 | 47.26514 | 7.49615 | 37877 ft | 425 kts | 220° |
| 2026-05-06 14:28 | 47.22010 | 7.43961 | 37881 ft | 426 kts | 220° |
| 2026-05-06 14:29 | 47.17527 | 7.38265 | 37889 ft | 426 kts | 223° |
| 2026-05-06 14:29 | 47.13592 | 7.31761 | 37882 ft | 427 kts | 230° |
| 2026-05-06 14:30 | 47.09938 | 7.24965 | 37879 ft | 427 kts | 230° |
| 2026-05-06 14:30 | 47.06241 | 7.18151 | 37873 ft | 427 kts | 230° |
| 2026-05-06 14:31 | 47.02530 | 7.11344 | 37875 ft | 427 kts | 230° |
| 2026-05-06 14:31 | 46.98815 | 7.04550 | 37898 ft | 428 kts | 230° |
| 2026-05-06 14:32 | 46.95085 | 6.97744 | 37901 ft | 429 kts | 230° |
| 2026-05-06 14:32 | 46.91256 | 6.91143 | 37910 ft | 429 kts | 225° |
| 2026-05-06 14:33 | 46.86793 | 6.85370 | 37910 ft | 429 kts | 218° |
| 2026-05-06 14:33 | 46.82157 | 6.79882 | 37910 ft | 429 kts | 219° |
| 2026-05-06 14:34 | 46.77534 | 6.74386 | 37907 ft | 429 kts | 219° |
| 2026-05-06 14:34 | 46.72935 | 6.68926 | 37909 ft | 429 kts | 219° |
| 2026-05-06 14:35 | 46.68303 | 6.63442 | 37909 ft | 429 kts | 219° |
| 2026-05-06 14:35 | 46.63662 | 6.57961 | 37911 ft | 429 kts | 219° |
| 2026-05-06 14:36 | 46.59022 | 6.52492 | 37915 ft | 430 kts | 219° |
| 2026-05-06 14:36 | 46.54405 | 6.47064 | 37916 ft | 430 kts | 219° |
| 2026-05-06 14:37 | 46.49756 | 6.41610 | 37921 ft | 430 kts | 219° |
| 2026-05-06 14:37 | 46.45099 | 6.36159 | 37931 ft | 430 kts | 219° |
| 2026-05-06 14:38 | 46.40439 | 6.30717 | 37929 ft | 430 kts | 219° |
| 2026-05-06 14:38 | 46.35777 | 6.25286 | 37938 ft | 430 kts | 219° |
| 2026-05-06 14:39 | 46.31145 | 6.19900 | 37934 ft | 430 kts | 219° |
| 2026-05-06 14:39 | 46.26171 | 6.15116 | 37936 ft | 431 kts | 207° |
| 2026-05-06 14:40 | 46.20528 | 6.12195 | 37930 ft | 433 kts | 194° |
| 2026-05-06 14:40 | 46.14561 | 6.10820 | 37937 ft | 435 kts | 191° |
| 2026-05-06 14:41 | 46.08613 | 6.09504 | 37933 ft | 435 kts | 191° |
| 2026-05-06 14:41 | 46.02626 | 6.08172 | 37943 ft | 436 kts | 191° |
| 2026-05-06 14:42 | 45.96640 | 6.06846 | 37941 ft | 436 kts | 191° |
| 2026-05-06 14:42 | 45.90648 | 6.05521 | 37937 ft | 436 kts | 191° |
| 2026-05-06 14:43 | 45.84657 | 6.04202 | 37941 ft | 436 kts | 191° |
| 2026-05-06 14:43 | 45.78706 | 6.02887 | 37940 ft | 436 kts | 191° |
| 2026-05-06 14:44 | 45.72707 | 6.01562 | 37942 ft | 436 kts | 191° |
| 2026-05-06 14:45 | 45.63721 | 5.99586 | 37938 ft | 435 kts | 191° |
| 2026-05-06 14:45 | 45.57773 | 5.98278 | 37939 ft | 435 kts | 191° |
| 2026-05-06 14:46 | 45.51793 | 5.96967 | 37940 ft | 435 kts | 191° |
| 2026-05-06 14:46 | 45.45842 | 5.95514 | 37939 ft | 432 kts | 195° |
| 2026-05-06 14:47 | 45.39991 | 5.93664 | 37923 ft | 430 kts | 195° |
| 2026-05-06 14:47 | 45.34184 | 5.91843 | 37924 ft | 430 kts | 195° |
| 2026-05-06 14:48 | 45.28333 | 5.90021 | 37915 ft | 430 kts | 195° |
| 2026-05-06 14:48 | 45.22484 | 5.88203 | 37926 ft | 430 kts | 195° |
| 2026-05-06 14:49 | 45.16633 | 5.86389 | 37925 ft | 431 kts | 195° |
| 2026-05-06 14:49 | 45.10817 | 5.84589 | 37938 ft | 431 kts | 195° |
| 2026-05-06 14:50 | 45.04968 | 5.82784 | 37936 ft | 430 kts | 195° |
| 2026-05-06 14:50 | 44.99130 | 5.80985 | 37911 ft | 429 kts | 195° |
| 2026-05-06 14:51 | 44.93307 | 5.79194 | 37916 ft | 428 kts | 195° |
| 2026-05-06 14:51 | 44.87495 | 5.77409 | 37916 ft | 428 kts | 195° |
| 2026-05-06 14:52 | 44.81728 | 5.75642 | 37911 ft | 427 kts | 195° |
| 2026-05-06 14:52 | 44.75923 | 5.73868 | 37916 ft | 427 kts | 195° |
| 2026-05-06 14:53 | 44.70126 | 5.72100 | 37905 ft | 426 kts | 195° |
| 2026-05-06 14:53 | 44.64342 | 5.70338 | 37913 ft | 425 kts | 195° |
| 2026-05-06 14:54 | 44.58594 | 5.68592 | 37916 ft | 425 kts | 195° |
| 2026-05-06 14:54 | 44.52817 | 5.66839 | 37905 ft | 425 kts | 195° |
| 2026-05-06 14:55 | 44.47036 | 5.65090 | 37908 ft | 425 kts | 195° |
| 2026-05-06 14:55 | 44.41302 | 5.63359 | 37893 ft | 424 kts | 195° |
| 2026-05-06 14:56 | 44.35652 | 5.61119 | 37899 ft | 421 kts | 203° |
| 2026-05-06 14:56 | 44.30207 | 5.58102 | 37882 ft | 420 kts | 204° |
| 2026-05-06 14:57 | 44.24769 | 5.55108 | 37890 ft | 421 kts | 204° |
| 2026-05-06 14:57 | 44.19353 | 5.52146 | 37890 ft | 421 kts | 204° |
| 2026-05-06 14:58 | 44.13907 | 5.49176 | 37883 ft | 421 kts | 204° |
| 2026-05-06 14:58 | 44.08443 | 5.46203 | 37889 ft | 422 kts | 204° |
| 2026-05-06 14:59 | 44.02969 | 5.43230 | 37896 ft | 423 kts | 204° |
| 2026-05-06 14:59 | 43.97492 | 5.40261 | 37899 ft | 423 kts | 204° |
| 2026-05-06 15:00 | 43.92041 | 5.37310 | 37900 ft | 423 kts | 204° |
| 2026-05-06 15:00 | 43.86555 | 5.34345 | 37903 ft | 423 kts | 204° |
| 2026-05-06 15:01 | 43.81064 | 5.31382 | 37912 ft | 423 kts | 204° |
| 2026-05-06 15:01 | 43.75578 | 5.28428 | 37921 ft | 423 kts | 204° |
| 2026-05-06 15:02 | 43.70128 | 5.25500 | 37919 ft | 423 kts | 204° |
| 2026-05-06 15:02 | 43.64650 | 5.22564 | 37918 ft | 422 kts | 204° |
| 2026-05-06 15:03 | 43.59183 | 5.19637 | 37933 ft | 421 kts | 205° |
| 2026-05-06 15:03 | 43.53724 | 5.16722 | 37923 ft | 420 kts | 205° |
| 2026-05-06 15:04 | 43.48313 | 5.13836 | 37912 ft | 420 kts | 205° |
| 2026-05-06 15:04 | 43.42869 | 5.10940 | 37910 ft | 419 kts | 205° |
| 2026-05-06 15:05 | 43.37617 | 5.07574 | 37909 ft | 415 kts | 212° |
| 2026-05-06 15:05 | 43.32812 | 5.03232 | 37904 ft | 413 kts | 217° |
| 2026-05-06 15:06 | 43.28114 | 4.98773 | 37909 ft | 413 kts | 217° |
| 2026-05-06 15:06 | 43.23373 | 4.94311 | 37908 ft | 413 kts | 217° |
| 2026-05-06 15:07 | 43.18629 | 4.89861 | 37913 ft | 413 kts | 217° |
| 2026-05-06 15:07 | 43.13885 | 4.85419 | 37922 ft | 413 kts | 217° |
| 2026-05-06 15:08 | 43.09166 | 4.81009 | 37926 ft | 413 kts | 217° |
| 2026-05-06 15:08 | 43.04348 | 4.76706 | 37925 ft | 415 kts | 212° |
| 2026-05-06 15:09 | 42.99287 | 4.72885 | 37913 ft | 416 kts | 212° |
| 2026-05-06 15:09 | 42.94224 | 4.69054 | 37927 ft | 416 kts | 212° |
| 2026-05-06 15:10 | 42.89193 | 4.65248 | 37928 ft | 416 kts | 212° |
| 2026-05-06 15:10 | 42.84125 | 4.61419 | 37928 ft | 417 kts | 212° |
| 2026-05-06 15:11 | 42.79050 | 4.57593 | 37932 ft | 417 kts | 212° |
| 2026-05-06 15:11 | 42.73969 | 4.53770 | 37933 ft | 417 kts | 212° |
| 2026-05-06 15:12 | 42.68884 | 4.49952 | 37936 ft | 418 kts | 212° |
| 2026-05-06 15:12 | 42.63834 | 4.46166 | 37943 ft | 417 kts | 212° |
| 2026-05-06 15:13 | 42.58748 | 4.42361 | 37945 ft | 417 kts | 212° |
| 2026-05-06 15:13 | 42.53665 | 4.38566 | 37952 ft | 417 kts | 212° |
| 2026-05-06 15:14 | 42.48585 | 4.34780 | 37954 ft | 416 kts | 212° |
| 2026-05-06 15:14 | 42.43543 | 4.31030 | 37948 ft | 416 kts | 212° |
| 2026-05-06 15:15 | 42.38473 | 4.27265 | 37955 ft | 415 kts | 212° |
| 2026-05-06 15:15 | 42.33406 | 4.23509 | 37954 ft | 415 kts | 212° |
| 2026-05-06 15:16 | 42.28350 | 4.19769 | 37951 ft | 414 kts | 212° |
| 2026-05-06 15:16 | 42.23329 | 4.16061 | 37954 ft | 414 kts | 212° |
| 2026-05-06 15:17 | 42.18283 | 4.12342 | 37953 ft | 413 kts | 212° |
| 2026-05-06 15:17 | 42.13244 | 4.08636 | 37951 ft | 412 kts | 212° |
| 2026-05-06 15:18 | 42.08208 | 4.04942 | 37951 ft | 412 kts | 212° |
| 2026-05-06 15:18 | 42.03171 | 4.01254 | 37952 ft | 412 kts | 212° |
| 2026-05-06 15:19 | 41.98179 | 3.97604 | 37948 ft | 411 kts | 212° |
| 2026-05-06 15:19 | 41.93032 | 3.94221 | 37944 ft | 415 kts | 205° |
| 2026-05-06 15:20 | 41.87422 | 3.92185 | 37947 ft | 421 kts | 194° |
| 2026-05-06 15:20 | 41.81638 | 3.90889 | 37948 ft | 421 kts | 195° |
| 2026-05-06 15:21 | 41.75901 | 3.89567 | 37949 ft | 421 kts | 195° |
| 2026-05-06 15:21 | 41.70124 | 3.88231 | 37949 ft | 421 kts | 195° |
| 2026-05-06 15:22 | 41.64348 | 3.86899 | 37947 ft | 421 kts | 195° |
| 2026-05-06 15:22 | 41.58571 | 3.85571 | 37952 ft | 421 kts | 195° |
| 2026-05-06 15:23 | 41.52789 | 3.84246 | 37949 ft | 421 kts | 195° |
| 2026-05-06 15:23 | 41.47049 | 3.82929 | 37952 ft | 421 kts | 195° |
| 2026-05-06 15:24 | 41.41268 | 3.81605 | 37949 ft | 421 kts | 195° |
| 2026-05-06 15:24 | 41.35489 | 3.80286 | 37949 ft | 421 kts | 195° |
| 2026-05-06 15:25 | 41.29711 | 3.78970 | 37949 ft | 421 kts | 195° |
| 2026-05-06 15:25 | 41.23972 | 3.77665 | 37949 ft | 421 kts | 195° |
| 2026-05-06 15:26 | 41.18192 | 3.76353 | 37952 ft | 421 kts | 195° |
| 2026-05-06 15:26 | 41.12592 | 3.74342 | 37950 ft | 414 kts | 206° |
| 2026-05-06 15:27 | 41.07239 | 3.71542 | 37948 ft | 414 kts | 206° |
| 2026-05-06 15:27 | 41.01913 | 3.68791 | 37947 ft | 414 kts | 206° |
| 2026-05-06 15:28 | 40.96544 | 3.66032 | 37950 ft | 414 kts | 206° |
| 2026-05-06 15:28 | 40.91176 | 3.63277 | 37951 ft | 414 kts | 206° |
| 2026-05-06 15:29 | 40.85812 | 3.60529 | 37948 ft | 414 kts | 206° |
| 2026-05-06 15:29 | 40.80484 | 3.57804 | 37953 ft | 414 kts | 206° |
| 2026-05-06 15:30 | 40.75118 | 3.55064 | 37942 ft | 413 kts | 206° |
| 2026-05-06 15:30 | 40.69749 | 3.52327 | 37940 ft | 413 kts | 206° |
| 2026-05-06 15:31 | 40.64384 | 3.49597 | 37938 ft | 413 kts | 206° |
| 2026-05-06 15:31 | 40.59052 | 3.46891 | 37946 ft | 404 kts | 206° |
| 2026-05-06 15:32 | 40.51267 | 3.42976 | 37851 ft | 403 kts | 206° |
| 2026-05-06 15:32 | 40.48654 | 3.41652 | 37471 ft | 403 kts | 206° |
| 2026-05-06 15:32 | 40.45984 | 3.40481 | 36850 ft | 407 kts | 200° |
| 2026-05-06 15:33 | 40.43197 | 3.39749 | 36197 ft | 410 kts | 193° |
| 2026-05-06 15:33 | 40.40338 | 3.39473 | 35504 ft | 414 kts | 187° |
| 2026-05-06 15:33 | 40.37463 | 3.39608 | 34770 ft | 411 kts | 185° |
| 2026-05-06 15:33 | 40.34615 | 3.39788 | 34054 ft | 410 kts | 185° |
| 2026-05-06 15:34 | 40.31754 | 3.39947 | 33251 ft | 414 kts | 185° |
| 2026-05-06 15:34 | 40.28861 | 3.40102 | 32450 ft | 419 kts | 185° |
| 2026-05-06 15:34 | 40.25936 | 3.40262 | 31685 ft | 424 kts | 184° |
| 2026-05-06 15:34 | 40.23011 | 3.40423 | 30935 ft | 428 kts | 184° |
| 2026-05-06 15:35 | 40.20035 | 3.40591 | 30201 ft | 428 kts | 184° |
| 2026-05-06 15:35 | 40.17060 | 3.40762 | 29381 ft | 427 kts | 184° |
| 2026-05-06 15:35 | 40.14103 | 3.40933 | 28549 ft | 423 kts | 184° |
| 2026-05-06 15:35 | 40.11177 | 3.41111 | 27742 ft | 419 kts | 183° |
| 2026-05-06 15:36 | 40.08279 | 3.41291 | 26963 ft | 414 kts | 183° |
| 2026-05-06 15:36 | 40.05414 | 3.41457 | 26200 ft | 410 kts | 183° |
| 2026-05-06 15:36 | 40.02574 | 3.41617 | 25462 ft | 406 kts | 183° |
| 2026-05-06 15:36 | 39.99798 | 3.41773 | 24752 ft | 403 kts | 183° |
| 2026-05-06 15:37 | 39.97013 | 3.41928 | 24051 ft | 399 kts | 183° |
| 2026-05-06 15:37 | 39.94253 | 3.42077 | 23335 ft | 396 kts | 183° |
| 2026-05-06 15:37 | 39.91510 | 3.42225 | 22513 ft | 392 kts | 183° |
| 2026-05-06 15:37 | 39.88796 | 3.42370 | 21727 ft | 389 kts | 183° |
| 2026-05-06 15:38 | 39.86099 | 3.42516 | 20959 ft | 386 kts | 182° |
| 2026-05-06 15:38 | 39.83424 | 3.42662 | 20210 ft | 383 kts | 182° |
| 2026-05-06 15:38 | 39.80765 | 3.42806 | 19472 ft | 381 kts | 182° |
| 2026-05-06 15:38 | 39.78128 | 3.42949 | 18762 ft | 378 kts | 182° |
| 2026-05-06 15:39 | 39.75289 | 3.43029 | 17965 ft | 373 kts | 188° |
| 2026-05-06 15:39 | 39.72815 | 3.42423 | 17185 ft | 364 kts | 202° |
| 2026-05-06 15:39 | 39.70550 | 3.41062 | 16400 ft | 355 kts | 215° |
| 2026-05-06 15:39 | 39.68655 | 3.39091 | 15644 ft | 345 kts | 228° |
| 2026-05-06 15:40 | 39.67203 | 3.36674 | 14903 ft | 336 kts | 240° |
| 2026-05-06 15:40 | 39.66145 | 3.33991 | 14182 ft | 333 kts | 245° |
| 2026-05-06 15:40 | 39.65116 | 3.31284 | 13441 ft | 334 kts | 244° |
| 2026-05-06 15:40 | 39.64083 | 3.28603 | 12660 ft | 330 kts | 244° |
| 2026-05-06 15:41 | 39.63058 | 3.25956 | 11889 ft | 327 kts | 244° |
| 2026-05-06 15:41 | 39.62049 | 3.23358 | 11271 ft | 326 kts | 244° |
| 2026-05-06 15:41 | 39.61029 | 3.20732 | 11023 ft | 326 kts | 244° |
| 2026-05-06 15:41 | 39.60008 | 3.18101 | 10945 ft | 327 kts | 244° |
| 2026-05-06 15:42 | 39.58983 | 3.15460 | 10933 ft | 328 kts | 244° |
| 2026-05-06 15:42 | 39.57957 | 3.12819 | 10863 ft | 328 kts | 244° |
| 2026-05-06 15:42 | 39.56951 | 3.10233 | 10496 ft | 316 kts | 244° |
| 2026-05-06 15:42 | 39.55963 | 3.07713 | 9855 ft | 312 kts | 243° |
| 2026-05-06 15:43 | 39.54985 | 3.05230 | 9194 ft | 307 kts | 244° |
| 2026-05-06 15:43 | 39.54030 | 3.02783 | 8552 ft | 302 kts | 244° |
| 2026-05-06 15:43 | 39.53096 | 3.00375 | 8093 ft | 294 kts | 244° |
| 2026-05-06 15:43 | 39.52209 | 2.98087 | 7956 ft | 274 kts | 244° |
| 2026-05-06 15:44 | 39.51394 | 2.95989 | 7931 ft | 260 kts | 244° |
| 2026-05-06 15:44 | 39.50573 | 2.93873 | 7941 ft | 264 kts | 244° |
| 2026-05-06 15:44 | 39.49807 | 2.91722 | 7932 ft | 261 kts | 253° |
| 2026-05-06 15:44 | 39.49163 | 2.89515 | 7943 ft | 264 kts | 243° |
| 2026-05-06 15:45 | 39.48264 | 2.87444 | 7940 ft | 264 kts | 241° |
| 2026-05-06 15:45 | 39.47350 | 2.85389 | 7935 ft | 263 kts | 241° |
| 2026-05-06 15:45 | 39.46443 | 2.83330 | 7941 ft | 263 kts | 242° |
| 2026-05-06 15:45 | 39.45853 | 2.81953 | 7889 ft | 265 kts | 242° |
| 2026-05-06 15:46 | 39.44956 | 2.79855 | 7605 ft | 267 kts | 242° |
| 2026-05-06 15:46 | 39.44052 | 2.77733 | 7112 ft | 271 kts | 242° |
| 2026-05-06 15:46 | 39.43139 | 2.75577 | 6630 ft | 275 kts | 242° |
| 2026-05-06 15:46 | 39.41918 | 2.72681 | 5966 ft | 279 kts | 242° |
| 2026-05-06 15:47 | 39.40988 | 2.70468 | 5447 ft | 280 kts | 242° |
| 2026-05-06 15:47 | 39.40364 | 2.68983 | 5110 ft | 276 kts | 242° |
| 2026-05-06 15:47 | 39.39461 | 2.66816 | 4608 ft | 272 kts | 242° |
| 2026-05-06 15:47 | 39.38591 | 2.64708 | 4175 ft | 265 kts | 242° |
| 2026-05-06 15:48 | 39.37751 | 2.62666 | 4011 ft | 248 kts | 242° |
| 2026-05-06 15:48 | 39.36974 | 2.60770 | 3996 ft | 235 kts | 242° |
| 2026-05-06 15:48 | 39.36202 | 2.58885 | 3995 ft | 238 kts | 242° |
| 2026-05-06 15:48 | 39.35432 | 2.57004 | 3996 ft | 236 kts | 242° |
| 2026-05-06 15:49 | 39.34711 | 2.55095 | 3990 ft | 237 kts | 253° |
| 2026-05-06 15:49 | 39.34648 | 2.52996 | 3993 ft | 237 kts | 285° |
| 2026-05-06 15:49 | 39.35441 | 2.51164 | 3994 ft | 236 kts | 317° |
| 2026-05-06 15:49 | 39.36705 | 2.49803 | 3997 ft | 236 kts | 322° |
| 2026-05-06 15:50 | 39.37987 | 2.48482 | 3990 ft | 233 kts | 322° |
| 2026-05-06 15:50 | 39.39215 | 2.47217 | 3923 ft | 220 kts | 322° |
| 2026-05-06 15:50 | 39.40408 | 2.45985 | 3574 ft | 221 kts | 322° |
| 2026-05-06 15:50 | 39.41619 | 2.44748 | 3148 ft | 220 kts | 328° |
| 2026-05-06 15:51 | 39.42982 | 2.44187 | 3001 ft | 207 kts | 4° |
| 2026-05-06 15:51 | 39.44354 | 2.44780 | 2993 ft | 210 kts | 39° |
| 2026-05-06 15:51 | 39.45186 | 2.46276 | 2996 ft | 208 kts | 75° |
| 2026-05-06 15:51 | 39.45279 | 2.48066 | 3018 ft | 189 kts | 91° |
| 2026-05-06 15:52 | 39.45395 | 2.49727 | 2999 ft | 186 kts | 82° |
| 2026-05-06 15:52 | 39.45668 | 2.51375 | 2996 ft | 187 kts | 72° |
| 2026-05-06 15:52 | 39.46181 | 2.52920 | 2976 ft | 186 kts | 63° |
| 2026-05-06 15:52 | 39.46794 | 2.54303 | 2977 ft | 167 kts | 59° |
| 2026-05-06 15:53 | 39.47394 | 2.55557 | 2818 ft | 166 kts | 59° |
| 2026-05-06 15:53 | 39.47986 | 2.56813 | 2594 ft | 165 kts | 59° |
| 2026-05-06 15:53 | 39.48585 | 2.58079 | 2370 ft | 165 kts | 59° |
| 2026-05-06 15:53 | 39.49182 | 2.59343 | 2146 ft | 165 kts | 59° |
| 2026-05-06 15:54 | 39.49779 | 2.60606 | 1916 ft | 164 kts | 59° |
| 2026-05-06 15:54 | 39.50376 | 2.61871 | 1708 ft | 164 kts | 59° |
| 2026-05-06 15:54 | 39.50963 | 2.63114 | 1480 ft | 156 kts | 59° |
| 2026-05-06 15:54 | 39.51496 | 2.64244 | 1278 ft | 139 kts | 59° |
| 2026-05-06 15:55 | 39.51981 | 2.65271 | 1100 ft | 131 kts | 59° |
| 2026-05-06 15:55 | 39.52456 | 2.66277 | 928 ft | 129 kts | 58° |
| 2026-05-06 15:55 | 39.52918 | 2.67267 | 757 ft | 128 kts | 54° |
| 2026-05-06 15:55 | 39.53361 | 2.68271 | 578 ft | 126 kts | 57° |
| 2026-05-06 15:56 | 39.53836 | 2.69237 | 417 ft | 129 kts | 56° |
| 2026-05-06 15:56 | 39.54299 | 2.70199 | 223 ft | 124 kts | 54° |
| 2026-05-06 15:56 | 39.54757 | 2.71166 | 53 ft | 127 kts | 54° |
| 2026-05-06 15:56 | 39.55194 | 2.72086 | 24 ft | 103 kts | 59° |
| 2026-05-06 15:57 | 39.55461 | 2.72648 | 19 ft | 39 kts | 58° |
| 2026-05-06 15:57 | 39.55495 | 2.72791 | 21 ft | 8 kts | 133° |
| 2026-05-06 15:57 | 39.55466 | 2.72828 | 20 ft | 0 kts | 135° |
| 2026-05-06 15:57 | 39.55462 | 2.72838 | 20 ft | 4 kts | 121° |
| 2026-05-06 15:58 | 39.55438 | 2.72887 | 20 ft | 7 kts | 122° |
| 2026-05-06 15:58 | 39.55429 | 2.72908 | 20 ft | 3 kts | 122° |
| 2026-05-06 15:58 | 39.55410 | 2.72946 | 20 ft | 7 kts | 123° |
| 2026-05-06 15:58 | 39.55406 | 2.72961 | 22 ft | 2 kts | 92° |
| 2026-05-06 15:59 | 39.55411 | 2.72978 | 20 ft | 4 kts | 75° |
| 2026-05-06 15:59 | 39.55417 | 2.73005 | 21 ft | 4 kts | 71° |
| 2026-05-06 15:59 | 39.55426 | 2.73029 | 20 ft | 1 kts | 52° |
| 2026-05-06 15:59 | 39.55441 | 2.73055 | 20 ft | 6 kts | 54° |
| 2026-05-06 16:00 | 39.55469 | 2.73108 | 20 ft | 8 kts | 57° |
| 2026-05-06 16:00 | 39.55504 | 2.73185 | 19 ft | 12 kts | 60° |
| 2026-05-06 16:00 | 39.55552 | 2.73290 | 20 ft | 15 kts | 59° |
| 2026-05-06 16:00 | 39.55604 | 2.73402 | 19 ft | 12 kts | 59° |
| 2026-05-06 16:01 | 39.55606 | 2.73510 | 21 ft | 14 kts | 130° |
| 2026-05-06 16:01 | 39.55547 | 2.73556 | 20 ft | 12 kts | 148° |
| 2026-05-06 16:01 | 39.55462 | 2.73626 | 20 ft | 17 kts | 148° |
| 2026-05-06 16:01 | 39.55355 | 2.73710 | 21 ft | 19 kts | 148° |
| 2026-05-06 16:02 | 39.55249 | 2.73793 | 23 ft | 14 kts | 148° |
| 2026-05-06 16:02 | 39.55169 | 2.73789 | 25 ft | 12 kts | 215° |
| 2026-05-06 16:02 | 39.55103 | 2.73790 | 27 ft | 8 kts | 185° |
| 2026-05-06 16:02 | 39.55076 | 2.73745 | 28 ft | 3 kts | 242° |
| 2026-05-06 16:03 | 39.55061 | 2.73708 | 30 ft | 2 kts | 241° |
| 2026-05-06 16:03 | 39.55053 | 2.73690 | 27 ft | 0 kts | 241° |